sensor_id;sensor_type;location;lat;lon;timestamp;temperature;humidity
44833;DHT22;30569;51.252;9.830;2023-07-28T00:01:30;18.70;99.90
44833;DHT22;30569;51.252;9.830;2023-07-28T00:03:56;18.70;99.90
44833;DHT22;30569;51.252;9.830;2023-07-28T00:06:23;18.80;99.90
44833;DHT22;30569;51.252;9.830;2023-07-28T00:08:49;18.80;99.90
44833;DHT22;30569;51.252;9.830;2023-07-28T00:11:15;18.70;99.90
44833;DHT22;30569;51.252;9.830;2023-07-28T00:13:41;18.80;99.90
44833;DHT22;30569;51.252;9.830;2023-07-28T00:16:08;18.80;99.90
44833;DHT22;30569;51.252;9.830;2023-07-28T00:18:34;18.80;99.90
44833;DHT22;30569;51.252;9.830;2023-07-28T00:20:59;18.90;99.90
44833;DHT22;30569;51.252;9.830;2023-07-28T00:23:25;19.20;99.90
44833;DHT22;30569;51.252;9.830;2023-07-28T00:25:51;18.80;99.90
44833;DHT22;30569;51.252;9.830;2023-07-28T00:28:17;18.90;99.90
44833;DHT22;30569;51.252;9.830;2023-07-28T00:30:42;18.90;99.90
44833;DHT22;30569;51.252;9.830;2023-07-28T00:33:08;18.80;99.90
44833;DHT22;30569;51.252;9.830;2023-07-28T00:35:33;18.70;99.90
44833;DHT22;30569;51.252;9.830;2023-07-28T00:37:59;18.60;99.90
44833;DHT22;30569;51.252;9.830;2023-07-28T00:40:24;18.60;99.90
44833;DHT22;30569;51.252;9.830;2023-07-28T00:42:50;18.60;99.90
44833;DHT22;30569;51.252;9.830;2023-07-28T00:45:15;18.70;99.90
44833;DHT22;30569;51.252;9.830;2023-07-28T00:47:41;18.70;99.90
44833;DHT22;30569;51.252;9.830;2023-07-28T00:50:09;18.60;99.90
44833;DHT22;30569;51.252;9.830;2023-07-28T00:52:35;18.50;99.90
44833;DHT22;30569;51.252;9.830;2023-07-28T00:55:01;18.60;99.90
44833;DHT22;30569;51.252;9.830;2023-07-28T00:57:27;18.40;99.90
44833;DHT22;30569;51.252;9.830;2023-07-28T00:59:53;18.40;99.90
44833;DHT22;30569;51.252;9.830;2023-07-28T01:02:19;18.20;99.90
44833;DHT22;30569;51.252;9.830;2023-07-28T01:04:45;18.30;99.90
44833;DHT22;30569;51.252;9.830;2023-07-28T01:07:17;18.40;99.90
44833;DHT22;30569;51.252;9.830;2023-07-28T01:09:55;18.40;99.90
44833;DHT22;30569;51.252;9.830;2023-07-28T01:12:23;18.40;99.90
44833;DHT22;30569;51.252;9.830;2023-07-28T01:14:49;18.40;99.90
44833;DHT22;30569;51.252;9.830;2023-07-28T01:17:15;18.30;99.90
44833;DHT22;30569;51.252;9.830;2023-07-28T01:19:40;18.40;99.90
44833;DHT22;30569;51.252;9.830;2023-07-28T01:22:28;18.30;99.90
44833;DHT22;30569;51.252;9.830;2023-07-28T01:25:06;18.30;99.90
44833;DHT22;30569;51.252;9.830;2023-07-28T01:27:32;18.30;99.90
44833;DHT22;30569;51.252;9.830;2023-07-28T01:29:58;18.30;99.90
44833;DHT22;30569;51.252;9.830;2023-07-28T01:32:24;18.20;99.90
44833;DHT22;30569;51.252;9.830;2023-07-28T01:34:50;18.20;99.90
44833;DHT22;30569;51.252;9.830;2023-07-28T01:37:15;18.20;99.90
44833;DHT22;30569;51.252;9.830;2023-07-28T01:39:41;18.10;99.90
44833;DHT22;30569;51.252;9.830;2023-07-28T01:42:06;17.90;99.90
44833;DHT22;30569;51.252;9.830;2023-07-28T01:44:32;17.80;99.90
44833;DHT22;30569;51.252;9.830;2023-07-28T01:46:57;17.70;99.90
44833;DHT22;30569;51.252;9.830;2023-07-28T01:49:23;17.70;99.90
44833;DHT22;30569;51.252;9.830;2023-07-28T01:51:48;17.70;99.90
44833;DHT22;30569;51.252;9.830;2023-07-28T01:54:14;17.80;99.90
44833;DHT22;30569;51.252;9.830;2023-07-28T01:56:39;17.80;99.90
44833;DHT22;30569;51.252;9.830;2023-07-28T01:59:05;17.80;99.90
44833;DHT22;30569;51.252;9.830;2023-07-28T02:01:30;17.60;99.90
44833;DHT22;30569;51.252;9.830;2023-07-28T02:03:56;17.50;99.90
44833;DHT22;30569;51.252;9.830;2023-07-28T02:06:22;17.50;99.90
44833;DHT22;30569;51.252;9.830;2023-07-28T02:08:48;17.70;99.90
44833;DHT22;30569;51.252;9.830;2023-07-28T02:11:14;17.60;99.90
44833;DHT22;30569;51.252;9.830;2023-07-28T02:13:39;17.60;99.90
44833;DHT22;30569;51.252;9.830;2023-07-28T02:16:05;17.70;99.90
44833;DHT22;30569;51.252;9.830;2023-07-28T02:18:30;17.50;99.90
44833;DHT22;30569;51.252;9.830;2023-07-28T02:20:56;17.50;99.90
44833;DHT22;30569;51.252;9.830;2023-07-28T02:23:21;17.40;99.90
44833;DHT22;30569;51.252;9.830;2023-07-28T02:25:47;17.40;99.90
44833;DHT22;30569;51.252;9.830;2023-07-28T02:28:12;17.30;99.90
44833;DHT22;30569;51.252;9.830;2023-07-28T02:30:38;17.20;99.90
44833;DHT22;30569;51.252;9.830;2023-07-28T02:33:03;17.20;99.90
44833;DHT22;30569;51.252;9.830;2023-07-28T02:35:29;17.10;99.90
44833;DHT22;30569;51.252;9.830;2023-07-28T02:37:57;17.10;99.90
44833;DHT22;30569;51.252;9.830;2023-07-28T02:40:22;17.40;99.90
44833;DHT22;30569;51.252;9.830;2023-07-28T02:42:48;17.40;99.90
44833;DHT22;30569;51.252;9.830;2023-07-28T02:45:13;17.50;99.90
44833;DHT22;30569;51.252;9.830;2023-07-28T02:47:39;17.60;99.90
44833;DHT22;30569;51.252;9.830;2023-07-28T02:50:05;17.70;99.90
44833;DHT22;30569;51.252;9.830;2023-07-28T02:52:30;17.70;99.90
44833;DHT22;30569;51.252;9.830;2023-07-28T02:54:56;17.80;99.90
44833;DHT22;30569;51.252;9.830;2023-07-28T02:57:21;17.70;99.90
44833;DHT22;30569;51.252;9.830;2023-07-28T02:59:47;17.50;99.90
44833;DHT22;30569;51.252;9.830;2023-07-28T03:02:12;17.50;99.90
44833;DHT22;30569;51.252;9.830;2023-07-28T03:04:38;17.70;99.90
44833;DHT22;30569;51.252;9.830;2023-07-28T03:07:04;17.60;99.90
44833;DHT22;30569;51.252;9.830;2023-07-28T03:09:29;17.70;99.90
44833;DHT22;30569;51.252;9.830;2023-07-28T03:11:55;17.80;99.90
44833;DHT22;30569;51.252;9.830;2023-07-28T03:14:20;17.80;99.90
44833;DHT22;30569;51.252;9.830;2023-07-28T03:16:46;17.70;99.90
44833;DHT22;30569;51.252;9.830;2023-07-28T03:19:11;17.60;99.90
44833;DHT22;30569;51.252;9.830;2023-07-28T03:21:37;17.60;99.90
44833;DHT22;30569;51.252;9.830;2023-07-28T03:24:02;17.50;99.90
44833;DHT22;30569;51.252;9.830;2023-07-28T03:26:28;17.60;99.90
44833;DHT22;30569;51.252;9.830;2023-07-28T03:28:54;17.60;99.90
44833;DHT22;30569;51.252;9.830;2023-07-28T03:31:19;17.50;99.90
44833;DHT22;30569;51.252;9.830;2023-07-28T03:33:45;17.60;99.90
44833;DHT22;30569;51.252;9.830;2023-07-28T03:38:36;17.70;99.90
44833;DHT22;30569;51.252;9.830;2023-07-28T03:41:02;17.70;99.90
44833;DHT22;30569;51.252;9.830;2023-07-28T03:43:28;17.90;99.90
44833;DHT22;30569;51.252;9.830;2023-07-28T03:45:53;17.60;99.90
44833;DHT22;30569;51.252;9.830;2023-07-28T03:48:19;17.60;99.90
44833;DHT22;30569;51.252;9.830;2023-07-28T03:50:44;17.70;99.90
44833;DHT22;30569;51.252;9.830;2023-07-28T03:53:10;17.70;99.90
44833;DHT22;30569;51.252;9.830;2023-07-28T03:55:35;17.70;99.90
44833;DHT22;30569;51.252;9.830;2023-07-28T03:58:01;17.70;99.90
44833;DHT22;30569;51.252;9.830;2023-07-28T04:00:26;17.80;99.90
44833;DHT22;30569;51.252;9.830;2023-07-28T04:02:52;17.80;99.90
44833;DHT22;30569;51.252;9.830;2023-07-28T04:05:17;17.70;99.90
44833;DHT22;30569;51.252;9.830;2023-07-28T04:07:43;17.70;99.90
44833;DHT22;30569;51.252;9.830;2023-07-28T04:10:09;17.50;99.90
44833;DHT22;30569;51.252;9.830;2023-07-28T04:12:34;17.50;99.90
44833;DHT22;30569;51.252;9.830;2023-07-28T04:15:00;17.50;99.90
44833;DHT22;30569;51.252;9.830;2023-07-28T04:17:27;17.50;99.90
44833;DHT22;30569;51.252;9.830;2023-07-28T04:19:53;17.60;99.90
44833;DHT22;30569;51.252;9.830;2023-07-28T04:22:18;17.70;99.90
44833;DHT22;30569;51.252;9.830;2023-07-28T04:24:47;17.60;99.90
44833;DHT22;30569;51.252;9.830;2023-07-28T04:27:13;17.60;99.90
44833;DHT22;30569;51.252;9.830;2023-07-28T04:29:39;17.60;99.90
44833;DHT22;30569;51.252;9.830;2023-07-28T04:32:05;17.60;99.90
44833;DHT22;30569;51.252;9.830;2023-07-28T04:34:33;17.60;99.90
44833;DHT22;30569;51.252;9.830;2023-07-28T04:36:59;17.60;99.90
44833;DHT22;30569;51.252;9.830;2023-07-28T04:39:24;17.70;99.90
44833;DHT22;30569;51.252;9.830;2023-07-28T04:41:50;17.80;99.90
44833;DHT22;30569;51.252;9.830;2023-07-28T04:44:15;17.80;99.90
44833;DHT22;30569;51.252;9.830;2023-07-28T04:46:41;17.70;99.90
44833;DHT22;30569;51.252;9.830;2023-07-28T04:49:06;17.80;99.90
44833;DHT22;30569;51.252;9.830;2023-07-28T04:51:32;17.80;99.90
44833;DHT22;30569;51.252;9.830;2023-07-28T04:53:57;17.90;99.90
44833;DHT22;30569;51.252;9.830;2023-07-28T04:56:23;17.90;99.90
44833;DHT22;30569;51.252;9.830;2023-07-28T04:58:48;18.00;99.90
44833;DHT22;30569;51.252;9.830;2023-07-28T05:01:14;17.90;99.90
44833;DHT22;30569;51.252;9.830;2023-07-28T05:03:39;17.80;99.90
44833;DHT22;30569;51.252;9.830;2023-07-28T05:06:05;17.90;99.90
44833;DHT22;30569;51.252;9.830;2023-07-28T05:08:30;17.90;99.90
44833;DHT22;30569;51.252;9.830;2023-07-28T05:10:56;17.90;99.90
44833;DHT22;30569;51.252;9.830;2023-07-28T05:13:22;17.90;99.90
44833;DHT22;30569;51.252;9.830;2023-07-28T05:15:47;17.90;99.90
44833;DHT22;30569;51.252;9.830;2023-07-28T05:18:13;18.00;99.90
44833;DHT22;30569;51.252;9.830;2023-07-28T05:20:38;18.10;99.90
44833;DHT22;30569;51.252;9.830;2023-07-28T05:23:04;18.00;99.90
44833;DHT22;30569;51.252;9.830;2023-07-28T05:25:29;17.90;99.90
44833;DHT22;30569;51.252;9.830;2023-07-28T05:27:55;18.00;99.90
44833;DHT22;30569;51.252;9.830;2023-07-28T05:30:21;18.30;99.90
44833;DHT22;30569;51.252;9.830;2023-07-28T05:32:47;18.20;99.90
44833;DHT22;30569;51.252;9.830;2023-07-28T05:35:14;18.40;99.90
44833;DHT22;30569;51.252;9.830;2023-07-28T05:37:40;18.30;99.90
44833;DHT22;30569;51.252;9.830;2023-07-28T05:40:06;18.60;99.90
44833;DHT22;30569;51.252;9.830;2023-07-28T05:42:31;18.60;99.90
44833;DHT22;30569;51.252;9.830;2023-07-28T05:44:57;18.80;99.90
44833;DHT22;30569;51.252;9.830;2023-07-28T05:47:24;18.90;99.90
44833;DHT22;30569;51.252;9.830;2023-07-28T05:49:49;19.00;99.90
44833;DHT22;30569;51.252;9.830;2023-07-28T05:52:15;19.10;99.90
44833;DHT22;30569;51.252;9.830;2023-07-28T05:54:41;19.10;99.90
44833;DHT22;30569;51.252;9.830;2023-07-28T05:57:06;19.00;99.90
44833;DHT22;30569;51.252;9.830;2023-07-28T05:59:32;19.10;99.90
44833;DHT22;30569;51.252;9.830;2023-07-28T06:01:57;19.20;99.90
44833;DHT22;30569;51.252;9.830;2023-07-28T06:04:23;19.10;99.90
44833;DHT22;30569;51.252;9.830;2023-07-28T06:06:49;19.10;99.90
44833;DHT22;30569;51.252;9.830;2023-07-28T06:09:14;19.10;99.90
44833;DHT22;30569;51.252;9.830;2023-07-28T06:11:40;19.20;99.90
44833;DHT22;30569;51.252;9.830;2023-07-28T06:14:05;19.40;99.90
44833;DHT22;30569;51.252;9.830;2023-07-28T06:16:31;19.30;99.90
44833;DHT22;30569;51.252;9.830;2023-07-28T06:18:56;19.20;99.90
44833;DHT22;30569;51.252;9.830;2023-07-28T06:21:22;19.30;99.90
44833;DHT22;30569;51.252;9.830;2023-07-28T06:23:48;19.30;99.90
44833;DHT22;30569;51.252;9.830;2023-07-28T06:26:13;19.30;99.90
44833;DHT22;30569;51.252;9.830;2023-07-28T06:28:39;19.40;99.90
44833;DHT22;30569;51.252;9.830;2023-07-28T06:31:05;19.80;99.90
44833;DHT22;30569;51.252;9.830;2023-07-28T06:33:31;19.90;99.90
44833;DHT22;30569;51.252;9.830;2023-07-28T06:35:56;20.00;99.90
44833;DHT22;30569;51.252;9.830;2023-07-28T06:38:22;20.00;99.90
44833;DHT22;30569;51.252;9.830;2023-07-28T06:40:48;20.00;99.90
44833;DHT22;30569;51.252;9.830;2023-07-28T06:43:15;20.10;99.90
44833;DHT22;30569;51.252;9.830;2023-07-28T06:45:40;19.70;99.90
44833;DHT22;30569;51.252;9.830;2023-07-28T06:48:06;19.90;99.90
44833;DHT22;30569;51.252;9.830;2023-07-28T06:50:32;20.50;99.90
44833;DHT22;30569;51.252;9.830;2023-07-28T06:52:58;20.50;99.90
44833;DHT22;30569;51.252;9.830;2023-07-28T06:55:23;20.70;99.90
44833;DHT22;30569;51.252;9.830;2023-07-28T06:57:49;20.50;99.90
44833;DHT22;30569;51.252;9.830;2023-07-28T07:00:15;20.40;99.90
44833;DHT22;30569;51.252;9.830;2023-07-28T07:02:41;20.40;99.90
44833;DHT22;30569;51.252;9.830;2023-07-28T07:05:07;20.10;99.90
44833;DHT22;30569;51.252;9.830;2023-07-28T07:07:33;19.90;99.90
44833;DHT22;30569;51.252;9.830;2023-07-28T07:09:58;20.00;99.90
44833;DHT22;30569;51.252;9.830;2023-07-28T07:12:25;20.10;99.90
44833;DHT22;30569;51.252;9.830;2023-07-28T07:14:51;20.40;99.90
44833;DHT22;30569;51.252;9.830;2023-07-28T07:17:16;20.30;99.90
44833;DHT22;30569;51.252;9.830;2023-07-28T07:19:42;20.50;99.90
44833;DHT22;30569;51.252;9.830;2023-07-28T07:22:08;20.60;99.90
44833;DHT22;30569;51.252;9.830;2023-07-28T07:24:34;21.00;99.90
44833;DHT22;30569;51.252;9.830;2023-07-28T07:26:59;21.00;99.90
44833;DHT22;30569;51.252;9.830;2023-07-28T07:29:25;20.90;99.90
44833;DHT22;30569;51.252;9.830;2023-07-28T07:31:50;21.00;99.90
44833;DHT22;30569;51.252;9.830;2023-07-28T07:34:20;20.90;99.90
44833;DHT22;30569;51.252;9.830;2023-07-28T07:36:47;20.90;99.90
44833;DHT22;30569;51.252;9.830;2023-07-28T07:39:12;20.90;99.90
44833;DHT22;30569;51.252;9.830;2023-07-28T07:41:38;21.00;99.90
44833;DHT22;30569;51.252;9.830;2023-07-28T07:44:03;21.10;99.90
44833;DHT22;30569;51.252;9.830;2023-07-28T07:46:31;21.30;99.90
44833;DHT22;30569;51.252;9.830;2023-07-28T07:48:56;21.40;99.90
44833;DHT22;30569;51.252;9.830;2023-07-28T07:51:22;20.90;99.90
44833;DHT22;30569;51.252;9.830;2023-07-28T07:53:48;20.90;99.90
44833;DHT22;30569;51.252;9.830;2023-07-28T07:56:14;21.00;99.90
44833;DHT22;30569;51.252;9.830;2023-07-28T07:58:39;20.90;99.90
44833;DHT22;30569;51.252;9.830;2023-07-28T08:01:05;21.10;99.90
44833;DHT22;30569;51.252;9.830;2023-07-28T08:03:31;21.10;99.90
44833;DHT22;30569;51.252;9.830;2023-07-28T08:06:01;21.10;99.90
44833;DHT22;30569;51.252;9.830;2023-07-28T08:08:27;20.90;99.90
44833;DHT22;30569;51.252;9.830;2023-07-28T08:10:52;21.10;99.90
44833;DHT22;30569;51.252;9.830;2023-07-28T08:13:18;21.10;99.90
44833;DHT22;30569;51.252;9.830;2023-07-28T08:15:44;21.20;99.90
44833;DHT22;30569;51.252;9.830;2023-07-28T08:18:13;21.50;99.90
44833;DHT22;30569;51.252;9.830;2023-07-28T08:20:39;21.30;99.90
44833;DHT22;30569;51.252;9.830;2023-07-28T08:23:05;21.50;99.90
44833;DHT22;30569;51.252;9.830;2023-07-28T08:25:30;21.80;99.90
44833;DHT22;30569;51.252;9.830;2023-07-28T08:27:56;21.80;99.90
44833;DHT22;30569;51.252;9.830;2023-07-28T08:30:22;22.30;99.90
44833;DHT22;30569;51.252;9.830;2023-07-28T08:32:47;22.30;99.90
44833;DHT22;30569;51.252;9.830;2023-07-28T08:35:14;22.90;99.90
44833;DHT22;30569;51.252;9.830;2023-07-28T08:37:39;23.10;99.90
44833;DHT22;30569;51.252;9.830;2023-07-28T08:40:05;23.10;99.90
44833;DHT22;30569;51.252;9.830;2023-07-28T08:42:36;23.10;99.90
44833;DHT22;30569;51.252;9.830;2023-07-28T08:45:04;23.20;99.90
44833;DHT22;30569;51.252;9.830;2023-07-28T08:47:30;23.20;99.90
44833;DHT22;30569;51.252;9.830;2023-07-28T08:49:56;22.80;99.90
44833;DHT22;30569;51.252;9.830;2023-07-28T08:52:22;22.90;99.90
44833;DHT22;30569;51.252;9.830;2023-07-28T08:54:49;22.50;99.90
44833;DHT22;30569;51.252;9.830;2023-07-28T08:57:15;22.30;99.90
44833;DHT22;30569;51.252;9.830;2023-07-28T08:59:40;22.40;99.90
44833;DHT22;30569;51.252;9.830;2023-07-28T09:02:14;22.60;99.90
44833;DHT22;30569;51.252;9.830;2023-07-28T09:04:45;22.80;99.90
44833;DHT22;30569;51.252;9.830;2023-07-28T09:07:10;22.70;99.90
44833;DHT22;30569;51.252;9.830;2023-07-28T09:09:36;22.70;99.90
44833;DHT22;30569;51.252;9.830;2023-07-28T09:14:29;22.80;99.90
44833;DHT22;30569;51.252;9.830;2023-07-28T09:16:55;23.10;99.90
44833;DHT22;30569;51.252;9.830;2023-07-28T09:19:21;22.70;99.90
44833;DHT22;30569;51.252;9.830;2023-07-28T09:22:00;22.40;99.90
44833;DHT22;30569;51.252;9.830;2023-07-28T09:24:33;22.80;99.90
44833;DHT22;30569;51.252;9.830;2023-07-28T09:26:59;22.50;99.90
44833;DHT22;30569;51.252;9.830;2023-07-28T09:29:26;22.20;99.90
44833;DHT22;30569;51.252;9.830;2023-07-28T09:32:03;22.40;99.90
44833;DHT22;30569;51.252;9.830;2023-07-28T09:34:29;22.60;99.90
44833;DHT22;30569;51.252;9.830;2023-07-28T09:36:59;22.90;99.90
44833;DHT22;30569;51.252;9.830;2023-07-28T09:39:25;22.70;99.90
44833;DHT22;30569;51.252;9.830;2023-07-28T09:41:51;23.00;99.90
44833;DHT22;30569;51.252;9.830;2023-07-28T09:44:17;23.10;99.90
44833;DHT22;30569;51.252;9.830;2023-07-28T09:46:53;23.30;99.90
44833;DHT22;30569;51.252;9.830;2023-07-28T09:49:28;23.20;99.90
44833;DHT22;30569;51.252;9.830;2023-07-28T09:51:56;23.20;99.90
44833;DHT22;30569;51.252;9.830;2023-07-28T09:54:28;23.30;99.90
44833;DHT22;30569;51.252;9.830;2023-07-28T09:56:56;23.30;99.90
44833;DHT22;30569;51.252;9.830;2023-07-28T09:59:29;23.50;99.90
44833;DHT22;30569;51.252;9.830;2023-07-28T10:01:58;23.00;99.90
44833;DHT22;30569;51.252;9.830;2023-07-28T10:04:24;23.10;99.90
44833;DHT22;30569;51.252;9.830;2023-07-28T10:06:51;23.40;99.90
44833;DHT22;30569;51.252;9.830;2023-07-28T10:09:25;23.40;99.90
44833;DHT22;30569;51.252;9.830;2023-07-28T10:11:51;23.80;99.90
44833;DHT22;30569;51.252;9.830;2023-07-28T10:16:58;24.40;99.90
44833;DHT22;30569;51.252;9.830;2023-07-28T10:19:33;24.90;99.90
44833;DHT22;30569;51.252;9.830;2023-07-28T10:22:00;24.80;99.90
44833;DHT22;30569;51.252;9.830;2023-07-28T10:24:49;25.00;99.50
44833;DHT22;30569;51.252;9.830;2023-07-28T10:27:36;25.10;99.00
44833;DHT22;30569;51.252;9.830;2023-07-28T10:30:04;24.90;97.90
44833;DHT22;30569;51.252;9.830;2023-07-28T10:32:38;24.80;98.40
44833;DHT22;30569;51.252;9.830;2023-07-28T10:35:09;25.00;97.90
44833;DHT22;30569;51.252;9.830;2023-07-28T10:37:36;25.10;97.50
44833;DHT22;30569;51.252;9.830;2023-07-28T10:42:48;24.90;98.20
44833;DHT22;30569;51.252;9.830;2023-07-28T10:45:13;24.80;99.70
44833;DHT22;30569;51.252;9.830;2023-07-28T10:47:40;24.70;98.30
44833;DHT22;30569;51.252;9.830;2023-07-28T10:50:09;24.90;98.30
44833;DHT22;30569;51.252;9.830;2023-07-28T10:52:38;24.80;98.50
44833;DHT22;30569;51.252;9.830;2023-07-28T10:55:04;24.90;97.90
44833;DHT22;30569;51.252;9.830;2023-07-28T10:57:30;24.80;98.70
44833;DHT22;30569;51.252;9.830;2023-07-28T11:00:00;24.90;98.20
44833;DHT22;30569;51.252;9.830;2023-07-28T11:02:27;25.00;97.80
44833;DHT22;30569;51.252;9.830;2023-07-28T11:04:52;25.20;97.40
44833;DHT22;30569;51.252;9.830;2023-07-28T11:07:18;25.20;97.50
44833;DHT22;30569;51.252;9.830;2023-07-28T11:09:45;25.30;98.00
44833;DHT22;30569;51.252;9.830;2023-07-28T11:12:10;25.30;97.60
44833;DHT22;30569;51.252;9.830;2023-07-28T11:14:36;25.70;98.30
44833;DHT22;30569;51.252;9.830;2023-07-28T11:17:02;25.90;97.60
44833;DHT22;30569;51.252;9.830;2023-07-28T11:19:27;25.90;97.30
44833;DHT22;30569;51.252;9.830;2023-07-28T11:21:54;26.00;96.90
44833;DHT22;30569;51.252;9.830;2023-07-28T11:24:21;26.30;96.50
44833;DHT22;30569;51.252;9.830;2023-07-28T11:26:46;26.50;97.20
44833;DHT22;30569;51.252;9.830;2023-07-28T11:29:12;26.70;95.40
44833;DHT22;30569;51.252;9.830;2023-07-28T11:31:38;25.80;96.10
44833;DHT22;30569;51.252;9.830;2023-07-28T11:34:16;25.90;96.30
44833;DHT22;30569;51.252;9.830;2023-07-28T11:36:41;25.50;96.10
44833;DHT22;30569;51.252;9.830;2023-07-28T11:39:08;25.40;97.00
44833;DHT22;30569;51.252;9.830;2023-07-28T11:41:36;25.10;96.70
44833;DHT22;30569;51.252;9.830;2023-07-28T11:44:02;25.20;97.00
44833;DHT22;30569;51.252;9.830;2023-07-28T11:46:38;25.30;98.30
44833;DHT22;30569;51.252;9.830;2023-07-28T11:49:13;25.50;97.80
44833;DHT22;30569;51.252;9.830;2023-07-28T11:51:40;25.10;98.30
44833;DHT22;30569;51.252;9.830;2023-07-28T11:54:11;25.20;99.20
44833;DHT22;30569;51.252;9.830;2023-07-28T11:56:37;25.00;97.40
44833;DHT22;30569;51.252;9.830;2023-07-28T11:59:03;24.80;98.60
44833;DHT22;30569;51.252;9.830;2023-07-28T12:01:29;25.30;99.50
44833;DHT22;30569;51.252;9.830;2023-07-28T12:03:54;25.50;98.70
44833;DHT22;30569;51.252;9.830;2023-07-28T12:06:20;25.50;98.30
44833;DHT22;30569;51.252;9.830;2023-07-28T12:08:45;25.80;97.70
44833;DHT22;30569;51.252;9.830;2023-07-28T12:11:14;25.90;95.20
44833;DHT22;30569;51.252;9.830;2023-07-28T12:13:51;25.90;95.80
44833;DHT22;30569;51.252;9.830;2023-07-28T12:16:40;25.50;95.80
44833;DHT22;30569;51.252;9.830;2023-07-28T12:19:07;25.30;96.60
44833;DHT22;30569;51.252;9.830;2023-07-28T12:21:32;25.60;96.80
44833;DHT22;30569;51.252;9.830;2023-07-28T12:23:58;25.70;96.70
44833;DHT22;30569;51.252;9.830;2023-07-28T12:26:23;25.90;95.90
44833;DHT22;30569;51.252;9.830;2023-07-28T12:28:55;25.50;97.90
44833;DHT22;30569;51.252;9.830;2023-07-28T12:31:21;25.90;97.00
44833;DHT22;30569;51.252;9.830;2023-07-28T12:36:13;25.40;97.60
44833;DHT22;30569;51.252;9.830;2023-07-28T12:38:38;25.30;98.40
44833;DHT22;30569;51.252;9.830;2023-07-28T12:41:04;25.60;97.70
44833;DHT22;30569;51.252;9.830;2023-07-28T12:43:29;25.70;97.50
44833;DHT22;30569;51.252;9.830;2023-07-28T12:45:55;25.80;96.30
44833;DHT22;30569;51.252;9.830;2023-07-28T12:48:21;25.70;97.00
44833;DHT22;30569;51.252;9.830;2023-07-28T12:50:47;25.10;97.70
44833;DHT22;30569;51.252;9.830;2023-07-28T12:53:12;25.30;98.20
44833;DHT22;30569;51.252;9.830;2023-07-28T12:55:38;25.50;98.40
44833;DHT22;30569;51.252;9.830;2023-07-28T12:58:03;25.90;97.50
44833;DHT22;30569;51.252;9.830;2023-07-28T13:00:29;26.20;96.30
44833;DHT22;30569;51.252;9.830;2023-07-28T13:02:54;26.20;96.90
44833;DHT22;30569;51.252;9.830;2023-07-28T13:05:20;26.10;96.20
44833;DHT22;30569;51.252;9.830;2023-07-28T13:07:45;26.00;97.40
44833;DHT22;30569;51.252;9.830;2023-07-28T13:10:11;26.10;96.00
44833;DHT22;30569;51.252;9.830;2023-07-28T13:12:37;26.20;96.30
44833;DHT22;30569;51.252;9.830;2023-07-28T13:15:03;26.40;95.30
44833;DHT22;30569;51.252;9.830;2023-07-28T13:17:29;26.40;94.10
44833;DHT22;30569;51.252;9.830;2023-07-28T13:19:55;26.30;95.30
44833;DHT22;30569;51.252;9.830;2023-07-28T13:22:22;26.30;94.90
44833;DHT22;30569;51.252;9.830;2023-07-28T13:24:48;26.30;95.90
44833;DHT22;30569;51.252;9.830;2023-07-28T13:27:13;26.10;94.70
44833;DHT22;30569;51.252;9.830;2023-07-28T13:29:39;26.20;94.80
44833;DHT22;30569;51.252;9.830;2023-07-28T13:32:18;25.90;95.10
44833;DHT22;30569;51.252;9.830;2023-07-28T13:34:44;25.70;95.10
44833;DHT22;30569;51.252;9.830;2023-07-28T13:37:10;25.80;95.40
44833;DHT22;30569;51.252;9.830;2023-07-28T13:39:35;26.00;94.40
44833;DHT22;30569;51.252;9.830;2023-07-28T13:42:01;26.10;94.30
44833;DHT22;30569;51.252;9.830;2023-07-28T13:44:26;26.20;95.80
44833;DHT22;30569;51.252;9.830;2023-07-28T13:46:52;26.10;94.40
44833;DHT22;30569;51.252;9.830;2023-07-28T13:49:17;25.70;95.20
44833;DHT22;30569;51.252;9.830;2023-07-28T13:51:43;25.60;94.50
44833;DHT22;30569;51.252;9.830;2023-07-28T13:54:10;25.70;95.60
44833;DHT22;30569;51.252;9.830;2023-07-28T13:56:36;25.80;95.00
44833;DHT22;30569;51.252;9.830;2023-07-28T13:59:01;26.20;95.00
44833;DHT22;30569;51.252;9.830;2023-07-28T14:01:27;26.20;94.70
44833;DHT22;30569;51.252;9.830;2023-07-28T14:03:52;26.30;95.10
44833;DHT22;30569;51.252;9.830;2023-07-28T14:06:19;26.10;94.30
44833;DHT22;30569;51.252;9.830;2023-07-28T14:08:44;26.30;94.50
44833;DHT22;30569;51.252;9.830;2023-07-28T14:11:10;26.60;94.20
44833;DHT22;30569;51.252;9.830;2023-07-28T14:13:36;26.70;94.00
44833;DHT22;30569;51.252;9.830;2023-07-28T14:16:01;26.40;94.10
44833;DHT22;30569;51.252;9.830;2023-07-28T14:18:27;26.40;94.30
44833;DHT22;30569;51.252;9.830;2023-07-28T14:20:52;26.60;93.60
44833;DHT22;30569;51.252;9.830;2023-07-28T14:23:23;26.60;93.70
44833;DHT22;30569;51.252;9.830;2023-07-28T14:25:49;26.20;94.70
44833;DHT22;30569;51.252;9.830;2023-07-28T14:28:15;26.20;94.30
44833;DHT22;30569;51.252;9.830;2023-07-28T14:30:40;25.90;94.20
44833;DHT22;30569;51.252;9.830;2023-07-28T14:33:06;25.90;94.20
44833;DHT22;30569;51.252;9.830;2023-07-28T14:35:32;26.10;95.00
44833;DHT22;30569;51.252;9.830;2023-07-28T14:37:57;26.20;93.90
44833;DHT22;30569;51.252;9.830;2023-07-28T14:40:23;26.10;94.80
44833;DHT22;30569;51.252;9.830;2023-07-28T14:42:48;26.10;94.30
44833;DHT22;30569;51.252;9.830;2023-07-28T14:45:14;25.90;95.00
44833;DHT22;30569;51.252;9.830;2023-07-28T14:47:39;26.20;94.40
44833;DHT22;30569;51.252;9.830;2023-07-28T14:50:05;26.50;94.30
44833;DHT22;30569;51.252;9.830;2023-07-28T14:52:31;26.50;94.50
44833;DHT22;30569;51.252;9.830;2023-07-28T14:54:56;26.70;93.80
44833;DHT22;30569;51.252;9.830;2023-07-28T14:57:22;26.50;93.20
44833;DHT22;30569;51.252;9.830;2023-07-28T14:59:47;26.40;94.20
44833;DHT22;30569;51.252;9.830;2023-07-28T15:02:13;26.20;94.00
44833;DHT22;30569;51.252;9.830;2023-07-28T15:04:39;26.20;94.80
44833;DHT22;30569;51.252;9.830;2023-07-28T15:07:04;25.80;94.40
44833;DHT22;30569;51.252;9.830;2023-07-28T15:09:30;25.90;95.10
44833;DHT22;30569;51.252;9.830;2023-07-28T15:11:56;25.80;94.10
44833;DHT22;30569;51.252;9.830;2023-07-28T15:14:21;25.90;94.70
44833;DHT22;30569;51.252;9.830;2023-07-28T15:16:47;25.90;93.70
44833;DHT22;30569;51.252;9.830;2023-07-28T15:19:12;25.70;94.60
44833;DHT22;30569;51.252;9.830;2023-07-28T15:21:38;25.60;93.90
44833;DHT22;30569;51.252;9.830;2023-07-28T15:24:03;25.70;94.50
44833;DHT22;30569;51.252;9.830;2023-07-28T15:26:29;25.90;93.60
44833;DHT22;30569;51.252;9.830;2023-07-28T15:28:55;25.80;93.50
44833;DHT22;30569;51.252;9.830;2023-07-28T15:31:23;26.00;93.40
44833;DHT22;30569;51.252;9.830;2023-07-28T15:33:48;26.20;94.00
44833;DHT22;30569;51.252;9.830;2023-07-28T15:36:14;26.10;93.50
44833;DHT22;30569;51.252;9.830;2023-07-28T15:38:39;26.00;93.10